Weather at Leongatha Airport

Public forecast

Using degrees Celsius for public forecast. Weather courtesy of forecast.io.

Closest aviation weather report (METAR) to Leongatha Airport

Closest report is Melbourne Essendon Airport, 64.5 nm (119.4 km) NW. Retrieved 2022/08/17 15:30 UTC (12 minutes ago):

YMEN 171530Z AUTO 36020G30KT 9999 // OVC100 12/09 Q1010

Closest aviation forecast (TAF) to Leongatha Airport

Closest forecast is Melbourne International Airport, 68.8 nm (127.4 km) NW. Retrieved 2022/08/17 15:45 UTC (0 seconds ago):

TAF YMML 171422Z 1715/1818 01032G42KT 9999 -RA NSC FM171600 01022G32KT 9999 -RA NSC FM172200 01025G40KT 9999 -RA NSC FM180300 35018G28KT 9999 NSW SCT025 FM180900 34010KT 9999 -SHRA SCT025 BKN045 FM181300 28006KT 9999 -SHRA BKN045 INTER 1809/1812 4000 SHRA SCT020